sensor_id;sensor_type;location;lat;lon;timestamp;P1;durP1;ratioP1;P2;durP2;ratioP2
64242;SDS011;50573;51.512;5.386;2023-04-15T00:07:32;13.93;;;5.70;;
64242;SDS011;50573;51.512;5.386;2023-04-15T00:17:35;11.17;;;5.67;;
64242;SDS011;50573;51.512;5.386;2023-04-15T00:27:41;16.90;;;6.57;;
64242;SDS011;50573;51.512;5.386;2023-04-15T00:37:44;19.30;;;7.43;;
64242;SDS011;50573;51.512;5.386;2023-04-15T00:47:49;15.45;;;7.20;;
64242;SDS011;50573;51.512;5.386;2023-04-15T00:57:52;17.55;;;8.32;;
64242;SDS011;50573;51.512;5.386;2023-04-15T01:07:58;19.88;;;8.10;;
64242;SDS011;50573;51.512;5.386;2023-04-15T01:18:01;16.00;;;8.60;;
64242;SDS011;50573;51.512;5.386;2023-04-15T01:28:06;17.17;;;8.38;;
64242;SDS011;50573;51.512;5.386;2023-04-15T01:38:10;15.73;;;8.27;;
64242;SDS011;50573;51.512;5.386;2023-04-15T01:48:15;22.90;;;10.00;;
64242;SDS011;50573;51.512;5.386;2023-04-15T01:58:18;22.33;;;9.70;;
64242;SDS011;50573;51.512;5.386;2023-04-15T02:08:23;11.07;;;6.30;;
64242;SDS011;50573;51.512;5.386;2023-04-15T02:28:31;15.35;;;9.68;;
64242;SDS011;50573;51.512;5.386;2023-04-15T02:38:34;25.37;;;9.63;;
64242;SDS011;50573;51.512;5.386;2023-04-15T02:48:40;28.37;;;11.63;;
64242;SDS011;50573;51.512;5.386;2023-04-15T02:58:43;20.53;;;12.03;;
64242;SDS011;50573;51.512;5.386;2023-04-15T03:08:48;18.05;;;10.50;;
64242;SDS011;50573;51.512;5.386;2023-04-15T03:18:53;19.58;;;11.00;;
64242;SDS011;50573;51.512;5.386;2023-04-15T03:28:58;34.60;;;13.67;;
64242;SDS011;50573;51.512;5.386;2023-04-15T03:39:03;23.00;;;12.65;;
64242;SDS011;50573;51.512;5.386;2023-04-15T03:49:07;23.55;;;13.65;;
64242;SDS011;50573;51.512;5.386;2023-04-15T03:59:10;15.33;;;10.47;;
64242;SDS011;50573;51.512;5.386;2023-04-15T04:09:15;25.55;;;14.93;;
64242;SDS011;50573;51.512;5.386;2023-04-15T04:19:18;25.80;;;15.43;;
64242;SDS011;50573;51.512;5.386;2023-04-15T04:29:22;25.13;;;14.88;;
64242;SDS011;50573;51.512;5.386;2023-04-15T04:39:25;25.47;;;15.50;;
64242;SDS011;50573;51.512;5.386;2023-04-15T04:49:30;20.98;;;15.10;;
64242;SDS011;50573;51.512;5.386;2023-04-15T04:59:33;27.93;;;16.07;;
64242;SDS011;50573;51.512;5.386;2023-04-15T05:09:38;24.25;;;15.18;;
64242;SDS011;50573;51.512;5.386;2023-04-15T05:19:41;30.37;;;17.10;;
64242;SDS011;50573;51.512;5.386;2023-04-15T05:29:45;26.38;;;15.88;;
64242;SDS011;50573;51.512;5.386;2023-04-15T05:39:48;26.50;;;12.60;;
64242;SDS011;50573;51.512;5.386;2023-04-15T05:49:53;23.17;;;16.10;;
64242;SDS011;50573;51.512;5.386;2023-04-15T05:59:57;24.95;;;16.60;;
64242;SDS011;50573;51.512;5.386;2023-04-15T06:10:01;22.73;;;15.68;;
64242;SDS011;50573;51.512;5.386;2023-04-15T06:20:05;24.88;;;16.90;;
64242;SDS011;50573;51.512;5.386;2023-04-15T06:30:11;23.90;;;13.10;;
64242;SDS011;50573;51.512;5.386;2023-04-15T06:40:14;21.33;;;13.98;;
64242;SDS011;50573;51.512;5.386;2023-04-15T06:50:19;24.15;;;14.85;;
64242;SDS011;50573;51.512;5.386;2023-04-15T07:00:22;18.23;;;12.90;;
64242;SDS011;50573;51.512;5.386;2023-04-15T07:10:36;20.55;;;14.43;;
64242;SDS011;50573;51.512;5.386;2023-04-15T07:20:39;19.90;;;13.43;;
64242;SDS011;50573;51.512;5.386;2023-04-15T07:30:50;17.63;;;14.10;;
64242;SDS011;50573;51.512;5.386;2023-04-15T07:40:56;20.30;;;15.00;;
64242;SDS011;50573;51.512;5.386;2023-04-15T07:51:07;17.10;;;11.82;;
64242;SDS011;50573;51.512;5.386;2023-04-15T08:01:12;12.43;;;9.82;;
64242;SDS011;50573;51.512;5.386;2023-04-15T08:11:23;14.70;;;9.95;;
64242;SDS011;50573;51.512;5.386;2023-04-15T08:21:29;11.52;;;8.80;;
64242;SDS011;50573;51.512;5.386;2023-04-15T08:31:40;14.98;;;9.38;;
64242;SDS011;50573;51.512;5.386;2023-04-15T08:41:49;13.73;;;9.45;;
64242;SDS011;50573;51.512;5.386;2023-04-15T08:51:59;11.10;;;6.17;;
64242;SDS011;50573;51.512;5.386;2023-04-15T09:02:03;11.85;;;6.85;;
64242;SDS011;50573;51.512;5.386;2023-04-15T09:12:12;8.53;;;5.10;;
64242;SDS011;50573;51.512;5.386;2023-04-15T09:22:20;12.40;;;5.80;;
64242;SDS011;50573;51.512;5.386;2023-04-15T09:32:28;9.88;;;5.75;;
64242;SDS011;50573;51.512;5.386;2023-04-15T09:42:34;7.55;;;4.90;;
64242;SDS011;50573;51.512;5.386;2023-04-15T09:52:45;5.95;;;3.95;;
64242;SDS011;50573;51.512;5.386;2023-04-15T10:02:52;5.90;;;4.47;;
64242;SDS011;50573;51.512;5.386;2023-04-15T10:13:06;5.72;;;4.18;;
64242;SDS011;50573;51.512;5.386;2023-04-15T10:23:10;5.68;;;4.38;;
64242;SDS011;50573;51.512;5.386;2023-04-15T10:33:18;6.25;;;3.60;;
64242;SDS011;50573;51.512;5.386;2023-04-15T10:43:25;7.07;;;3.97;;
64242;SDS011;50573;51.512;5.386;2023-04-15T10:53:36;6.03;;;3.88;;
64242;SDS011;50573;51.512;5.386;2023-04-15T11:03:41;6.45;;;3.60;;
64242;SDS011;50573;51.512;5.386;2023-04-15T11:23:57;9.18;;;3.40;;
64242;SDS011;50573;51.512;5.386;2023-04-15T11:34:08;4.60;;;3.60;;
64242;SDS011;50573;51.512;5.386;2023-04-15T11:44:15;4.57;;;2.85;;
64242;SDS011;50573;51.512;5.386;2023-04-15T11:54:24;6.88;;;3.58;;
64242;SDS011;50573;51.512;5.386;2023-04-15T12:04:30;7.70;;;4.32;;
64242;SDS011;50573;51.512;5.386;2023-04-15T12:14:40;5.15;;;2.60;;
64242;SDS011;50573;51.512;5.386;2023-04-15T12:24:52;6.82;;;4.50;;
64242;SDS011;50573;51.512;5.386;2023-04-15T12:34:59;5.20;;;3.00;;
64242;SDS011;50573;51.512;5.386;2023-04-15T12:45:04;5.40;;;2.95;;
64242;SDS011;50573;51.512;5.386;2023-04-15T12:55:13;6.32;;;2.70;;
64242;SDS011;50573;51.512;5.386;2023-04-15T13:05:19;3.13;;;2.20;;
64242;SDS011;50573;51.512;5.386;2023-04-15T13:15:32;6.10;;;2.20;;
64242;SDS011;50573;51.512;5.386;2023-04-15T13:25:38;4.25;;;2.28;;
64242;SDS011;50573;51.512;5.386;2023-04-15T13:35:46;4.43;;;2.85;;
64242;SDS011;50573;51.512;5.386;2023-04-15T13:45:53;3.10;;;2.08;;
64242;SDS011;50573;51.512;5.386;2023-04-15T13:56:02;4.03;;;1.83;;
64242;SDS011;50573;51.512;5.386;2023-04-15T14:06:11;4.60;;;2.10;;
64242;SDS011;50573;51.512;5.386;2023-04-15T14:16:20;4.60;;;1.70;;
64242;SDS011;50573;51.512;5.386;2023-04-15T14:26:27;4.03;;;1.58;;
64242;SDS011;50573;51.512;5.386;2023-04-15T14:36:37;3.40;;;1.55;;
64242;SDS011;50573;51.512;5.386;2023-04-15T14:46:45;5.78;;;1.33;;
64242;SDS011;50573;51.512;5.386;2023-04-15T14:56:52;2.67;;;1.20;;
64242;SDS011;50573;51.512;5.386;2023-04-15T15:06:59;4.40;;;1.65;;
64242;SDS011;50573;51.512;5.386;2023-04-15T15:17:10;2.28;;;1.20;;
64242;SDS011;50573;51.512;5.386;2023-04-15T15:27:17;1.55;;;0.80;;
64242;SDS011;50573;51.512;5.386;2023-04-15T15:37:28;6.20;;;1.10;;
64242;SDS011;50573;51.512;5.386;2023-04-15T15:47:32;3.15;;;1.23;;
64242;SDS011;50573;51.512;5.386;2023-04-15T15:57:43;5.25;;;1.38;;
64242;SDS011;50573;51.512;5.386;2023-04-15T16:07:49;3.58;;;1.27;;
64242;SDS011;50573;51.512;5.386;2023-04-15T16:18:00;3.28;;;1.27;;
64242;SDS011;50573;51.512;5.386;2023-04-15T16:28:07;7.25;;;2.00;;
64242;SDS011;50573;51.512;5.386;2023-04-15T16:38:27;4.90;;;1.58;;
64242;SDS011;50573;51.512;5.386;2023-04-15T16:48:30;12.10;;;2.20;;
64242;SDS011;50573;51.512;5.386;2023-04-15T16:58:34;8.05;;;1.63;;
64242;SDS011;50573;51.512;5.386;2023-04-15T17:08:39;4.43;;;1.30;;
64242;SDS011;50573;51.512;5.386;2023-04-15T17:18:50;7.95;;;1.83;;
64242;SDS011;50573;51.512;5.386;2023-04-15T17:28:55;9.23;;;1.90;;
64242;SDS011;50573;51.512;5.386;2023-04-15T17:39:09;8.52;;;2.00;;
64242;SDS011;50573;51.512;5.386;2023-04-15T17:49:12;6.28;;;1.63;;
64242;SDS011;50573;51.512;5.386;2023-04-15T17:59:23;14.25;;;2.40;;
64242;SDS011;50573;51.512;5.386;2023-04-15T18:09:28;13.88;;;3.00;;
64242;SDS011;50573;51.512;5.386;2023-04-15T18:29:55;10.68;;;2.70;;
64242;SDS011;50573;51.512;5.386;2023-04-15T18:40:00;12.70;;;3.20;;
64242;SDS011;50573;51.512;5.386;2023-04-15T18:50:03;11.73;;;2.73;;
64242;SDS011;50573;51.512;5.386;2023-04-15T19:00:09;15.13;;;2.75;;
64242;SDS011;50573;51.512;5.386;2023-04-15T19:10:13;15.80;;;2.50;;
64242;SDS011;50573;51.512;5.386;2023-04-15T19:20:17;10.57;;;2.28;;
64242;SDS011;50573;51.512;5.386;2023-04-15T19:30:20;12.73;;;2.33;;
64242;SDS011;50573;51.512;5.386;2023-04-15T19:40:25;12.10;;;2.25;;
64242;SDS011;50573;51.512;5.386;2023-04-15T19:50:28;5.97;;;2.07;;
64242;SDS011;50573;51.512;5.386;2023-04-15T20:00:32;13.95;;;2.38;;
64242;SDS011;50573;51.512;5.386;2023-04-15T20:10:35;14.40;;;2.40;;
64242;SDS011;50573;51.512;5.386;2023-04-15T20:20:40;9.05;;;2.30;;
64242;SDS011;50573;51.512;5.386;2023-04-15T20:30:43;10.80;;;2.30;;
64242;SDS011;50573;51.512;5.386;2023-04-15T20:40:48;9.82;;;2.70;;
64242;SDS011;50573;51.512;5.386;2023-04-15T20:50:51;16.60;;;2.37;;
64242;SDS011;50573;51.512;5.386;2023-04-15T21:00:56;10.65;;;2.28;;
64242;SDS011;50573;51.512;5.386;2023-04-15T21:11:00;10.05;;;2.13;;
64242;SDS011;50573;51.512;5.386;2023-04-15T21:21:04;13.40;;;2.20;;
64242;SDS011;50573;51.512;5.386;2023-04-15T21:31:07;8.17;;;2.40;;
64242;SDS011;50573;51.512;5.386;2023-04-15T21:41:12;14.40;;;2.92;;
64242;SDS011;50573;51.512;5.386;2023-04-15T21:51:15;14.87;;;3.53;;
64242;SDS011;50573;51.512;5.386;2023-04-15T22:01:19;9.10;;;3.00;;
64242;SDS011;50573;51.512;5.386;2023-04-15T22:11:22;16.13;;;3.30;;
64242;SDS011;50573;51.512;5.386;2023-04-15T22:21:30;11.02;;;3.75;;
64242;SDS011;50573;51.512;5.386;2023-04-15T22:31:33;7.33;;;2.37;;
64242;SDS011;50573;51.512;5.386;2023-04-15T22:41:37;12.13;;;3.28;;
64242;SDS011;50573;51.512;5.386;2023-04-15T22:51:42;18.17;;;3.40;;
64242;SDS011;50573;51.512;5.386;2023-04-15T23:01:46;15.90;;;3.33;;
64242;SDS011;50573;51.512;5.386;2023-04-15T23:11:49;21.37;;;5.37;;
64242;SDS011;50573;51.512;5.386;2023-04-15T23:21:54;22.35;;;4.72;;
64242;SDS011;50573;51.512;5.386;2023-04-15T23:31:57;14.93;;;4.90;;
64242;SDS011;50573;51.512;5.386;2023-04-15T23:42:02;19.40;;;5.15;;
64242;SDS011;50573;51.512;5.386;2023-04-15T23:52:05;21.00;;;5.20;;
